Water Levels and Discharges  |  Reservoirs  |  Precipitation  |  Water quality Last site revision 06.05.2026 15:04
       
Water Levels and Discharges All data are without validation 06.05.2026 15:09:08
Labská
River: Labe
Crest of dam elevation: 694,16 [m asl]
Spillway elevation: 691,26 [m asl]
Maximum flood control capacity level: 692,36 [m asl]
Usable storage capacity level: 684,62 [m asl]
Ineffective storage level: 678,66 [m asl]
Vertical coordinate system: Balt p.v.
Remark:
Schema:
Go to balance data (monthly series)
Graf
Date Water level [m. n. m.] Outflow [m3s-1] QN
06.05.2026 15:00 678,39 2,78
06.05.2026 14:00 678,41 2,78
06.05.2026 13:00 678,44 2,78
06.05.2026 12:00 678,47 2,79
06.05.2026 11:00 678,50 2,78
06.05.2026 10:00 678,52 2,78
06.05.2026 09:00 678,54 2,79
06.05.2026 08:00 678,56 2,77
06.05.2026 07:00 678,59 2,78
06.05.2026 06:00 678,61
06.05.2026 05:00 678,63 2,77
06.05.2026 04:00 678,65 2,78
06.05.2026 03:00 678,67 2,77
06.05.2026 02:00 678,69 2,77
06.05.2026 01:00 678,71 2,76
06.05.2026 00:00 678,73 2,76
05.05.2026 23:00 678,75 2,76
05.05.2026 22:00 678,77 2,75
05.05.2026 21:00 678,79 2,76
05.05.2026 20:00 678,81 2,73
05.05.2026 19:00 678,83 2,76
05.05.2026 18:00 678,85 2,75
05.05.2026 17:00 678,87 2,76
05.05.2026 16:00 678,90 2,76
05.05.2026 07:00 679,19 2,80
04.05.2026 07:00 679,84 2,33
03.05.2026 07:00 680,14 2,36
02.05.2026 07:00 680,38 2,38
01.05.2026 07:00 680,94 2,39
30.04.2026 07:00 681,59 2,43
This information is also available through the application for mobile phones with Android OS (only in the Czech language)  Reservoir levels
  Povodí Labe, státní podnik © 2026 The system uses also data from measuring stations of   Czech Hydrometeorological Institute © 2026 Application developed by   MGE Data s.r.o. © 1996 - 2024